createdAt,value
2023-01-17T00:02:06.246Z,5.00
2023-01-17T00:04:52.304Z,6.57
2023-01-17T00:07:39.519Z,6.78
2023-01-17T00:10:09.785Z,6.00
2023-01-17T00:12:36.716Z,8.55
2023-01-17T00:15:03.940Z,8.43
2023-01-17T00:17:30.937Z,8.27
2023-01-17T00:20:18.112Z,8.95
2023-01-17T00:23:04.757Z,7.00
2023-01-17T00:25:57.594Z,8.30
2023-01-17T00:28:26.711Z,6.72
2023-01-17T00:30:53.807Z,7.10
2023-01-17T00:33:21.720Z,7.78
2023-01-17T00:35:48.882Z,7.22
2023-01-17T00:38:18.629Z,6.72
2023-01-17T00:40:46.293Z,7.68
2023-01-17T00:43:34.248Z,7.63
2023-01-17T00:46:19.509Z,6.82
2023-01-17T00:49:05.280Z,6.32
2023-01-17T00:51:52.029Z,6.65
2023-01-17T00:54:37.895Z,6.50
2023-01-17T00:57:24.476Z,7.05
2023-01-17T01:00:09.866Z,5.25
2023-01-17T01:02:56.405Z,5.45
2023-01-17T01:05:42.748Z,6.30
2023-01-17T01:08:43.402Z,7.63
2023-01-17T01:11:34.076Z,8.60
2023-01-17T01:14:20.157Z,5.43
2023-01-17T01:17:05.638Z,6.95
2023-01-17T01:19:52.229Z,5.05
2023-01-17T01:22:37.919Z,5.30
2023-01-17T01:25:23.807Z,5.28
2023-01-17T01:28:09.274Z,5.60
2023-01-17T01:30:54.702Z,6.18
2023-01-17T01:33:21.354Z,6.45
2023-01-17T01:35:53.953Z,7.95
2023-01-17T01:38:23.551Z,4.22
2023-01-17T01:40:52.889Z,5.35
2023-01-17T01:43:38.951Z,4.35
2023-01-17T01:46:06.619Z,5.38
2023-01-17T01:48:41.465Z,4.70
2023-01-17T01:51:11.931Z,6.05
2023-01-17T01:53:42.134Z,4.47
2023-01-17T01:56:13.110Z,3.97
2023-01-17T01:58:41.713Z,9.40
2023-01-17T02:01:09.367Z,4.50
2023-01-17T02:03:39.984Z,4.25
2023-01-17T02:06:29.944Z,2.80
2023-01-17T02:09:01.060Z,3.65
2023-01-17T02:11:28.021Z,4.95
2023-01-17T02:13:54.925Z,4.25
2023-01-17T02:16:52.280Z,4.03
2023-01-17T02:19:55.916Z,3.22
2023-01-17T02:22:42.855Z,3.40
2023-01-17T02:25:38.511Z,3.10
2023-01-17T02:28:22.844Z,3.97
2023-01-17T02:31:12.403Z,3.58
2023-01-17T02:33:55.673Z,3.22
2023-01-17T02:36:30.229Z,6.15
2023-01-17T02:39:06.813Z,3.45
2023-01-17T02:41:42.797Z,4.50
2023-01-17T02:44:10.986Z,4.53
2023-01-17T02:46:48.029Z,4.72
2023-01-17T02:49:17.368Z,6.25
2023-01-17T02:52:21.555Z,4.95
2023-01-17T02:55:03.858Z,3.95
2023-01-17T03:00:17.380Z,3.78
2023-01-17T03:03:09.770Z,7.32
2023-01-17T03:08:11.132Z,3.78
2023-01-17T03:10:39.275Z,3.45
2023-01-17T03:13:06.107Z,4.35
2023-01-17T03:15:33.228Z,3.55
2023-01-17T03:18:04.323Z,3.03
2023-01-17T03:20:30.991Z,3.35
2023-01-17T03:22:57.657Z,5.05
2023-01-17T03:25:24.304Z,3.28
2023-01-17T03:27:50.946Z,1.60
2023-01-17T03:30:17.835Z,1.67
2023-01-17T03:32:44.475Z,2.30
2023-01-17T03:35:11.108Z,2.75
2023-01-17T03:37:37.796Z,2.53
2023-01-17T03:40:05.190Z,3.25
2023-01-17T03:42:31.846Z,4.40
2023-01-17T03:44:58.475Z,1.42
2023-01-17T03:47:25.258Z,5.90
2023-01-17T03:49:52.311Z,1.15
2023-01-17T03:52:18.950Z,6.78
2023-01-17T03:54:45.637Z,1.75
2023-01-17T03:57:12.283Z,2.65
2023-01-17T03:59:38.962Z,1.63
2023-01-17T04:02:05.774Z,0.70
2023-01-17T04:04:32.458Z,1.15
2023-01-17T04:06:59.137Z,0.50
2023-01-17T04:09:25.752Z,0.68
2023-01-17T04:11:53.246Z,1.05
2023-01-17T04:14:19.922Z,0.82
2023-01-17T04:16:46.605Z,0.88
2023-01-17T04:19:13.920Z,1.60
2023-01-17T04:21:40.584Z,2.63
2023-01-17T04:24:07.592Z,2.05
2023-01-17T04:26:34.289Z,0.57
2023-01-17T04:29:00.904Z,4.40
2023-01-17T04:31:27.625Z,0.40
2023-01-17T04:33:54.260Z,0.45
2023-01-17T04:36:21.090Z,0.20
2023-01-17T04:38:47.773Z,0.10
2023-01-17T04:41:14.419Z,0.20
2023-01-17T04:43:41.087Z,0.50
2023-01-17T04:46:10.133Z,0.32
2023-01-17T04:48:37.305Z,0.38
2023-01-17T04:51:05.245Z,0.25
2023-01-17T04:53:32.192Z,0.43
2023-01-17T04:55:59.010Z,0.60
2023-01-17T04:58:26.601Z,1.10
2023-01-17T05:00:54.729Z,0.90
2023-01-17T05:03:22.984Z,1.10
2023-01-17T05:05:49.657Z,1.10
2023-01-17T05:08:16.303Z,0.40
2023-01-17T05:10:46.220Z,0.52
2023-01-17T05:13:13.717Z,0.10
2023-01-17T05:15:40.445Z,0.45
2023-01-17T05:18:11.059Z,0.50
2023-01-17T05:20:37.734Z,4.75
2023-01-17T05:23:04.397Z,0.60
2023-01-17T05:25:32.781Z,0.32
2023-01-17T05:28:00.168Z,1.55
2023-01-17T05:30:28.789Z,0.68
2023-01-17T05:32:56.877Z,0.30
2023-01-17T05:35:26.554Z,1.88
2023-01-17T05:37:53.282Z,1.52
2023-01-17T05:40:23.138Z,0.63
2023-01-17T05:42:51.479Z,0.43
2023-01-17T05:45:19.994Z,0.35
2023-01-17T05:47:47.936Z,1.48
2023-01-17T05:50:17.357Z,2.03
2023-01-17T05:52:50.670Z,1.60
2023-01-17T05:55:17.353Z,1.48
2023-01-17T05:57:44.080Z,1.23
2023-01-17T06:00:11.383Z,0.88
2023-01-17T06:02:38.114Z,0.88
2023-01-17T06:05:05.461Z,2.03
2023-01-17T06:07:32.734Z,0.80
2023-01-17T06:09:59.413Z,1.33
2023-01-17T06:12:26.075Z,2.40
2023-01-17T06:14:52.728Z,4.35
2023-01-17T06:17:19.348Z,1.77
2023-01-17T06:19:46.021Z,1.05
2023-01-17T06:22:12.778Z,2.50
2023-01-17T06:24:39.429Z,2.00
2023-01-17T06:27:09.448Z,2.00
2023-01-17T06:29:36.445Z,2.50
2023-01-17T06:32:03.413Z,2.67
2023-01-17T06:34:30.127Z,0.60
2023-01-17T06:36:57.332Z,1.05
2023-01-17T06:39:24.019Z,1.67
2023-01-17T06:41:50.679Z,0.65
2023-01-17T06:44:17.492Z,1.05
2023-01-17T06:46:45.053Z,0.45
2023-01-17T06:49:11.830Z,2.58
2023-01-17T06:51:38.521Z,1.80
2023-01-17T06:54:05.336Z,1.83
2023-01-17T06:56:33.169Z,1.52
2023-01-17T06:58:59.944Z,0.70
2023-01-17T07:01:26.746Z,2.47
2023-01-17T07:03:53.791Z,1.55
2023-01-17T07:06:20.924Z,3.95
2023-01-17T07:08:47.567Z,4.07
2023-01-17T07:11:14.231Z,1.23
2023-01-17T07:13:41.574Z,3.17
2023-01-17T07:16:09.108Z,1.63
2023-01-17T07:18:35.912Z,2.50
2023-01-17T07:21:02.593Z,1.65
2023-01-17T07:23:29.302Z,2.53
2023-01-17T07:26:00.278Z,2.30
2023-01-17T07:28:28.252Z,5.10
2023-01-17T07:30:54.927Z,4.57
2023-01-17T07:33:21.859Z,2.60
2023-01-17T07:35:48.518Z,5.45
2023-01-17T07:38:18.382Z,2.10
2023-01-17T07:40:45.624Z,3.65
2023-01-17T07:43:16.569Z,2.45
2023-01-17T07:45:53.496Z,6.57
2023-01-17T07:48:22.681Z,6.90
2023-01-17T07:50:54.188Z,11.88
2023-01-17T07:53:29.180Z,1.55
2023-01-17T07:55:59.989Z,7.97
2023-01-17T07:58:26.753Z,6.60
2023-01-17T08:00:53.558Z,6.15
2023-01-17T08:03:20.418Z,5.53
2023-01-17T08:05:55.418Z,6.30
2023-01-17T08:08:22.118Z,7.05
2023-01-17T08:10:49.516Z,4.15
2023-01-17T08:13:16.274Z,10.20
2023-01-17T08:15:43.086Z,6.60
2023-01-17T08:18:09.829Z,7.45
2023-01-17T08:20:36.508Z,5.88
2023-01-17T08:23:03.161Z,8.05
2023-01-17T08:25:29.950Z,7.15
2023-01-17T08:27:58.006Z,4.90
2023-01-17T08:30:25.708Z,8.52
2023-01-17T08:32:52.576Z,5.80
2023-01-17T08:35:22.671Z,7.28
2023-01-17T08:37:54.644Z,4.15
2023-01-17T08:40:22.092Z,8.75
2023-01-17T08:42:56.911Z,6.78
2023-01-17T08:45:24.237Z,11.35
2023-01-17T08:47:51.540Z,9.98
2023-01-17T08:50:21.547Z,6.78
2023-01-17T08:52:49.237Z,7.75
2023-01-17T08:55:16.812Z,6.40
2023-01-17T08:57:43.518Z,8.40
2023-01-17T09:00:10.856Z,14.63
2023-01-17T09:02:37.553Z,9.57
2023-01-17T09:05:04.522Z,6.53
2023-01-17T09:07:31.310Z,14.93
2023-01-17T09:09:57.964Z,5.22
2023-01-17T09:12:24.782Z,4.72
2023-01-17T09:14:51.469Z,5.38
2023-01-17T09:17:18.117Z,6.72
2023-01-17T09:19:47.376Z,11.27
2023-01-17T09:22:15.095Z,7.30
2023-01-17T09:24:42.164Z,7.70
2023-01-17T09:27:08.851Z,12.02
2023-01-17T09:29:35.612Z,6.10
2023-01-17T09:32:02.341Z,7.82
2023-01-17T09:34:30.408Z,6.05
2023-01-17T09:36:57.251Z,9.27
2023-01-17T09:39:24.054Z,9.05
2023-01-17T09:42:22.513Z,7.28
2023-01-17T09:44:52.542Z,7.13
2023-01-17T09:47:32.709Z,6.43
2023-01-17T09:50:15.208Z,10.18
2023-01-17T09:52:41.940Z,9.57
2023-01-17T09:55:14.702Z,16.55
2023-01-17T09:58:21.559Z,8.32
2023-01-17T10:01:04.511Z,8.52
2023-01-17T10:03:49.868Z,11.88
2023-01-17T10:06:26.297Z,12.15
2023-01-17T10:09:08.035Z,16.60
2023-01-17T10:12:14.473Z,6.75
2023-01-17T10:15:03.022Z,9.70
2023-01-17T10:18:03.797Z,5.90
2023-01-17T10:20:43.349Z,4.00
2023-01-17T10:23:16.976Z,8.60
2023-01-17T10:25:47.619Z,4.30
2023-01-17T10:28:30.630Z,9.35
2023-01-17T10:31:12.082Z,6.63
2023-01-17T10:33:52.602Z,2.65
2023-01-17T10:36:27.367Z,2.40
2023-01-17T10:38:57.699Z,4.03
2023-01-17T10:41:29.271Z,3.33
2023-01-17T10:44:05.319Z,10.50
2023-01-17T10:46:40.883Z,4.57
2023-01-17T10:49:16.683Z,6.45
2023-01-17T10:52:11.593Z,5.13
2023-01-17T10:54:56.616Z,4.78
2023-01-17T10:57:25.805Z,4.38
2023-01-17T10:59:55.653Z,11.02
2023-01-17T11:02:29.937Z,6.47
2023-01-17T11:04:57.965Z,7.15
2023-01-17T11:07:26.722Z,5.50
2023-01-17T11:09:56.204Z,4.05
2023-01-17T11:12:28.181Z,4.78
2023-01-17T11:15:08.607Z,4.68
2023-01-17T11:17:46.252Z,9.23
2023-01-17T11:20:20.115Z,8.52
2023-01-17T11:23:23.069Z,7.53
2023-01-17T11:25:51.158Z,5.25
2023-01-17T11:28:22.714Z,8.45
2023-01-17T11:30:57.164Z,6.30
2023-01-17T11:33:36.080Z,13.13
2023-01-17T11:36:02.753Z,7.25
2023-01-17T11:38:29.449Z,7.10
2023-01-17T11:41:16.169Z,7.60
2023-01-17T11:43:55.056Z,8.45
2023-01-17T11:46:22.560Z,6.97
2023-01-17T11:48:56.137Z,10.52
2023-01-17T11:51:28.338Z,11.10
2023-01-17T11:54:03.476Z,5.90
2023-01-17T11:56:33.477Z,5.32
2023-01-17T11:59:23.665Z,5.72
2023-01-17T12:02:18.964Z,5.10
2023-01-17T12:04:48.826Z,12.75
2023-01-17T12:07:23.718Z,6.15
2023-01-17T12:10:07.194Z,14.00
2023-01-17T12:13:26.946Z,6.65
2023-01-17T12:16:32.978Z,8.93
2023-01-17T12:19:23.202Z,8.90
2023-01-17T12:22:18.560Z,6.40
2023-01-17T12:25:14.718Z,7.75
2023-01-17T12:28:16.909Z,9.23
2023-01-17T12:31:27.169Z,10.68
2023-01-17T12:34:01.901Z,10.35
2023-01-17T12:36:37.827Z,7.68
2023-01-17T12:39:09.296Z,6.53
2023-01-17T12:41:41.714Z,14.15
2023-01-17T12:44:14.257Z,9.38
2023-01-17T12:46:49.410Z,12.63
2023-01-17T12:49:42.759Z,7.57
2023-01-17T12:52:35.521Z,10.35
2023-01-17T12:55:10.529Z,9.20
2023-01-17T12:57:45.038Z,11.30
2023-01-17T13:00:20.204Z,8.75
2023-01-17T13:02:56.488Z,5.05
2023-01-17T13:05:37.115Z,9.27
2023-01-17T13:08:35.931Z,7.22
2023-01-17T13:11:18.151Z,7.80
2023-01-17T13:16:35.356Z,9.57
2023-01-17T13:19:15.380Z,9.45
2023-01-17T13:21:42.496Z,10.88
2023-01-17T13:24:23.889Z,8.18
2023-01-17T13:27:09.815Z,8.77
2023-01-17T13:30:04.417Z,11.73
2023-01-17T13:32:59.019Z,7.28
2023-01-17T13:35:39.829Z,6.88
2023-01-17T13:38:43.933Z,15.98
2023-01-17T13:41:34.302Z,8.38
2023-01-17T13:44:21.638Z,14.88
2023-01-17T13:47:05.059Z,17.75
2023-01-17T13:49:39.120Z,7.93
2023-01-17T13:52:10.685Z,8.05
2023-01-17T13:54:46.348Z,12.77
2023-01-17T13:57:30.221Z,22.35
2023-01-17T14:00:23.283Z,14.07
2023-01-17T14:02:51.542Z,13.45
2023-01-17T14:05:42.211Z,14.77
2023-01-17T14:08:17.203Z,11.00
2023-01-17T14:10:49.764Z,12.27
2023-01-17T14:13:35.588Z,13.02
2023-01-17T14:16:06.918Z,14.27
2023-01-17T14:18:36.771Z,22.05
2023-01-17T14:21:11.557Z,9.82
2023-01-17T14:23:50.658Z,18.02
2023-01-17T14:26:25.604Z,10.95
2023-01-17T14:28:53.418Z,23.02
2023-01-17T14:31:22.555Z,8.88
2023-01-17T14:33:49.259Z,15.52
2023-01-17T14:36:29.479Z,11.52
2023-01-17T14:38:56.433Z,11.88
2023-01-17T14:41:27.211Z,21.30
2023-01-17T14:43:54.414Z,13.88
2023-01-17T14:46:30.983Z,10.55
2023-01-17T14:49:03.908Z,12.50
2023-01-17T14:51:34.923Z,14.55
2023-01-17T14:54:05.169Z,20.42
2023-01-17T14:56:32.548Z,13.35
2023-01-17T14:59:21.993Z,10.98
2023-01-17T15:02:07.594Z,12.90
2023-01-17T15:04:39.367Z,12.82
2023-01-17T15:07:06.770Z,11.70
2023-01-17T15:09:37.092Z,18.48
2023-01-17T15:12:04.636Z,13.60
2023-01-17T15:14:38.744Z,13.82
2023-01-17T15:17:15.482Z,14.85
2023-01-17T15:19:44.308Z,16.77
2023-01-17T15:22:11.824Z,17.08
2023-01-17T15:24:42.195Z,18.50
2023-01-17T15:27:13.360Z,21.92
2023-01-17T15:29:41.047Z,16.20
2023-01-17T15:32:23.803Z,17.55
2023-01-17T15:34:51.655Z,18.02
2023-01-17T15:37:21.343Z,19.05
2023-01-17T15:39:48.194Z,23.75
2023-01-17T15:42:27.144Z,24.33
2023-01-17T15:44:56.738Z,23.63
2023-01-17T15:47:33.791Z,20.23
2023-01-17T15:50:02.716Z,25.40
2023-01-17T15:52:29.545Z,19.58
2023-01-17T15:55:13.688Z,15.85
2023-01-17T15:57:40.733Z,23.55
2023-01-17T16:00:12.516Z,22.75
2023-01-17T16:02:58.648Z,29.85
2023-01-17T16:05:27.527Z,18.02
2023-01-17T16:07:56.720Z,17.40
2023-01-17T16:10:27.690Z,19.02
2023-01-17T16:12:58.228Z,20.20
2023-01-17T16:15:26.481Z,19.92
2023-01-17T16:17:58.223Z,21.85
2023-01-17T16:20:41.522Z,24.45
2023-01-17T16:23:10.199Z,26.40
2023-01-17T16:25:36.922Z,24.90
2023-01-17T16:28:03.988Z,18.55
2023-01-17T16:30:31.532Z,19.48
2023-01-17T16:32:58.548Z,21.50
2023-01-17T16:35:28.279Z,21.33
2023-01-17T16:38:01.008Z,20.08
2023-01-17T16:40:31.244Z,20.05
2023-01-17T16:43:01.368Z,33.63
2023-01-17T16:45:28.128Z,27.27
2023-01-17T16:47:54.939Z,44.55
2023-01-17T16:50:24.056Z,41.47
2023-01-17T16:52:52.459Z,43.38
2023-01-17T16:55:22.016Z,36.28
2023-01-17T16:57:50.627Z,32.70
2023-01-17T17:00:18.249Z,30.88
2023-01-17T17:02:44.959Z,28.60
2023-01-17T17:05:11.719Z,23.20
2023-01-17T17:07:45.341Z,22.88
2023-01-17T17:10:14.623Z,25.00
2023-01-17T17:12:41.754Z,25.40
2023-01-17T17:15:09.555Z,28.40
2023-01-17T17:17:41.029Z,22.13
2023-01-17T17:20:12.970Z,24.25
2023-01-17T17:22:44.068Z,32.53
2023-01-17T17:25:12.095Z,27.60
2023-01-17T17:27:38.915Z,33.30
2023-01-17T17:30:06.315Z,34.38
2023-01-17T17:32:33.101Z,26.10
2023-01-17T17:35:00.169Z,25.08
2023-01-17T17:37:30.280Z,26.17
2023-01-17T17:39:57.596Z,23.25
2023-01-17T17:42:24.347Z,33.92
2023-01-17T17:44:51.032Z,32.50
2023-01-17T17:47:17.861Z,30.10
2023-01-17T17:49:44.555Z,31.08
2023-01-17T17:52:11.253Z,32.60
2023-01-17T17:54:38.123Z,42.10
2023-01-17T17:57:04.849Z,44.65
2023-01-17T17:59:31.698Z,44.38
2023-01-17T18:01:59.658Z,37.10
2023-01-17T18:04:26.748Z,50.97
2023-01-17T18:06:57.533Z,43.78
2023-01-17T18:09:24.406Z,38.75
2023-01-17T18:11:51.070Z,40.75
2023-01-17T18:14:20.826Z,42.90
2023-01-17T18:16:47.809Z,48.63
2023-01-17T18:19:18.009Z,48.88
2023-01-17T18:21:44.755Z,51.72
2023-01-17T18:24:14.407Z,42.38
2023-01-17T18:26:45.849Z,52.47
2023-01-17T18:29:15.613Z,53.40
2023-01-17T18:31:43.679Z,47.92
2023-01-17T18:34:13.371Z,43.13
2023-01-17T18:36:40.310Z,36.60
2023-01-17T18:39:18.711Z,40.72
2023-01-17T18:41:45.792Z,39.47
2023-01-17T18:44:12.874Z,38.97
2023-01-17T18:46:40.319Z,36.50
2023-01-17T18:49:07.560Z,32.50
2023-01-17T18:51:34.678Z,37.17
2023-01-17T18:54:05.328Z,37.33
2023-01-17T18:56:34.231Z,46.75
2023-01-17T18:59:01.213Z,60.58
2023-01-17T19:01:33.639Z,63.60
2023-01-17T19:04:04.887Z,63.97
2023-01-17T19:06:34.319Z,72.95
2023-01-17T19:09:01.465Z,53.83
2023-01-17T19:11:29.025Z,51.22
2023-01-17T19:13:56.745Z,47.28
2023-01-17T19:16:27.889Z,48.38
2023-01-17T19:19:01.775Z,52.63
2023-01-17T19:21:29.307Z,50.35
2023-01-17T19:23:57.204Z,45.53
2023-01-17T19:26:26.416Z,46.08
2023-01-17T19:28:54.333Z,48.38
2023-01-17T19:31:24.162Z,67.05
2023-01-17T19:33:53.768Z,72.10
2023-01-17T19:36:23.493Z,49.85
2023-01-17T19:39:03.485Z,52.75
2023-01-17T19:41:32.093Z,47.25
2023-01-17T19:44:03.680Z,64.95
2023-01-17T19:46:30.804Z,49.15
2023-01-17T19:48:58.182Z,44.35
2023-01-17T19:51:25.440Z,55.13
2023-01-17T19:53:53.542Z,56.70
2023-01-17T19:56:22.578Z,59.45
2023-01-17T19:58:49.643Z,50.30
2023-01-17T20:01:19.033Z,43.50
2023-01-17T20:03:46.603Z,46.83
2023-01-17T20:06:16.831Z,49.90
2023-01-17T20:08:44.466Z,61.22
2023-01-17T20:11:14.741Z,126.78
2023-01-17T20:13:42.130Z,120.03
2023-01-17T20:16:11.988Z,102.18
2023-01-17T20:18:38.800Z,68.40
2023-01-17T20:21:08.547Z,65.32
2023-01-17T20:23:38.306Z,68.82
2023-01-17T20:26:05.666Z,63.03
2023-01-17T20:28:34.087Z,55.38
2023-01-17T20:31:14.465Z,57.97
2023-01-17T20:33:43.072Z,55.72
2023-01-17T20:36:12.794Z,63.67
2023-01-17T20:38:45.447Z,56.20
2023-01-17T20:41:15.214Z,65.43
2023-01-17T20:43:57.904Z,54.90
2023-01-17T20:46:31.343Z,52.90
2023-01-17T20:49:00.437Z,58.90
2023-01-17T20:51:28.557Z,56.90
2023-01-17T20:54:00.964Z,54.50
2023-01-17T20:56:30.087Z,49.55
2023-01-17T20:58:57.806Z,53.65
2023-01-17T21:01:24.503Z,55.25
2023-01-17T21:03:53.862Z,58.55
2023-01-17T21:06:22.733Z,60.40
2023-01-17T21:08:50.061Z,56.15
2023-01-17T21:11:20.366Z,49.05
2023-01-17T21:13:51.240Z,52.55
2023-01-17T21:16:21.001Z,56.15
2023-01-17T21:18:49.010Z,53.33
2023-01-17T21:21:19.079Z,53.22
2023-01-17T21:23:45.838Z,47.65
2023-01-17T21:26:14.598Z,48.58
2023-01-17T21:28:45.938Z,50.30
2023-01-17T21:31:23.135Z,37.33
2023-01-17T21:34:11.220Z,41.60
2023-01-17T21:36:47.853Z,47.85
2023-01-17T21:39:18.174Z,45.25
2023-01-17T21:41:48.477Z,48.80
2023-01-17T21:44:19.576Z,51.90
2023-01-17T21:46:48.073Z,70.63
2023-01-17T21:49:15.934Z,57.45
2023-01-17T21:51:52.960Z,63.88
2023-01-17T21:54:46.578Z,62.35
2023-01-17T21:57:35.327Z,43.38
2023-01-17T22:00:09.471Z,49.35
2023-01-17T22:02:50.897Z,45.17
2023-01-17T22:05:26.734Z,46.65
2023-01-17T22:09:24.617Z,46.78
2023-01-17T22:11:59.512Z,37.83
2023-01-17T22:20:37.801Z,43.75
2023-01-17T22:20:42.478Z,43.95
2023-01-17T22:23:45.417Z,44.55
2023-01-17T22:26:18.553Z,53.55
2023-01-17T22:28:52.054Z,45.90
2023-01-17T22:31:23.760Z,39.45
2023-01-17T22:34:02.883Z,47.97
2023-01-17T22:36:38.014Z,51.80
2023-01-17T22:39:05.584Z,55.28
2023-01-17T22:41:38.346Z,41.08
2023-01-17T22:44:07.765Z,44.58
2023-01-17T22:46:40.779Z,51.88
2023-01-17T22:49:13.492Z,41.50
2023-01-17T22:51:43.884Z,54.15
2023-01-17T22:54:11.701Z,42.75
2023-01-17T22:56:39.387Z,42.92
2023-01-17T22:59:11.849Z,45.50
2023-01-17T23:01:42.986Z,41.95
2023-01-17T23:04:14.116Z,48.42
2023-01-17T23:06:42.212Z,43.15
2023-01-17T23:09:12.537Z,39.58
2023-01-17T23:11:50.200Z,38.33
2023-01-17T23:14:22.517Z,42.72
2023-01-17T23:17:15.872Z,37.80
2023-01-17T23:19:57.195Z,48.97
2023-01-17T23:22:26.992Z,54.50
2023-01-17T23:24:57.828Z,73.53
2023-01-17T23:27:49.657Z,60.63
2023-01-17T23:30:18.718Z,64.47
2023-01-17T23:32:46.533Z,47.30
2023-01-17T23:35:14.432Z,50.58
2023-01-17T23:37:59.979Z,45.75
2023-01-17T23:40:26.664Z,36.47
2023-01-17T23:43:12.017Z,37.17
2023-01-17T23:45:39.397Z,30.65
2023-01-17T23:48:09.480Z,36.08
2023-01-17T23:50:38.783Z,32.20
2023-01-17T23:53:09.330Z,40.53
2023-01-17T23:55:41.046Z,28.10
2023-01-17T23:58:10.086Z,30.40
